CSCL Long Beach — VRCZ7 — position and weather

sailwx.info

Track history (hours):
 
Tides and Currents Weather Stations Pressure Air Temp Water Temp Dewpoint Dewpoint Depression Visibility Wind Speed Wind Dir Waves Ship Positions

CSCL Long Beach

Last reported at 2017-Dec-08 12:02 UTC. Time now 2017-Dec-13 03:39 UTC.
Position N 31°06' E 122°24'.

Length 336.7 m; beam 45.6 m; draft 15 m.

Type: Ship. MMSI: 477883900.

Date/timePositionNaut miles runAvg speedWind from/ knotsBaromVisibWave heightAir tempDewpointWater temp
2017-Dec-08 12:02N 31°06' E 122°24'414.5
2017-Dec-08 11:44N 31°06' E 122°19'414.9
2017-Dec-08 11:29N 31°08' E 122°15'715.1
2017-Dec-08 11:00N 31°12' E 122°08'715.3
2017-Dec-08 10:30N 31°15' E 121°60'815.2
2017-Dec-08 10:00N 31°16' E 121°51'1 0.0
2017-Dec-07 04:40N 31°16' E 121°52'210.3
2017-Dec-07 04:30N 31°16' E 121°54'510.5
2017-Dec-07 04:00N 31°15' E 121°60'612.0
2017-Dec-07 03:30N 31°13' E 122°07'511.1
2017-Dec-07 03:00N 31°10' E 122°12'611.1
2017-Dec-07 02:30N 31°07' E 122°17'612.1
2017-Dec-07 02:00N 31°06' E 122°24'710.6
2017-Dec-07 01:23N 31°07' E 122°32'  
2017-Dec-04 10:30N 41°39' E 141°10'1019.5
2017-Dec-04 10:01N 41°40' E 141°23'918.0
2017-Dec-04 09:29N 41°39' E 141°35'  
2017-Nov-30 00:00N 57°24' W 176°48'36514.6 270 / 34987.0 5.4 4.0 8.0
2017-Nov-28 23:00N 55°18' W 166°30'   250 / 28964.0 5.4 6.0 6.0
Track history (hours):
 
Tides and Currents Weather Stations Pressure Air Temp Water Temp Dewpoint Dewpoint Depression Visibility Wind Speed Wind Dir Waves Ship Positions

CSCL Long Beach

Last reported at 2017-Dec-08 12:02 UTC. Time now 2017-Dec-13 03:39 UTC.
Position N 31°06' E 122°24'.

Length 336.7 m; beam 45.6 m; draft 15 m.

Type: Ship. MMSI: 477883900.

Date/timePositionNaut miles runAvg speedWind from/ knotsBaromVisibWave heightAir tempDewpointWater temp
2017-Dec-08 12:02N 31°06' E 122°24'414.5
2017-Dec-08 11:44N 31°06' E 122°19'414.9
2017-Dec-08 11:29N 31°08' E 122°15'715.1
2017-Dec-08 11:00N 31°12' E 122°08'715.3
2017-Dec-08 10:30N 31°15' E 121°60'815.2
2017-Dec-08 10:00N 31°16' E 121°51'1 0.0
2017-Dec-07 04:40N 31°16' E 121°52'210.3
2017-Dec-07 04:30N 31°16' E 121°54'510.5
2017-Dec-07 04:00N 31°15' E 121°60'612.0
2017-Dec-07 03:30N 31°13' E 122°07'511.1
2017-Dec-07 03:00N 31°10' E 122°12'611.1
2017-Dec-07 02:30N 31°07' E 122°17'612.1
2017-Dec-07 02:00N 31°06' E 122°24'710.6
2017-Dec-07 01:23N 31°07' E 122°32'  
2017-Dec-04 10:30N 41°39' E 141°10'1019.5
2017-Dec-04 10:01N 41°40' E 141°23'918.0
2017-Dec-04 09:29N 41°39' E 141°35'  
2017-Nov-30 00:00N 57°24' W 176°48'36514.6 270 / 34987.0 5.4 4.0 8.0
2017-Nov-28 23:00N 55°18' W 166°30'   250 / 28964.0 5.4 6.0 6.0

Dump ship's entire track history